Time;durP1;ratioP1;P1;durP2;ratioP2;P2;SDS_P1;SDS_P2;PMS_P1;PMS_P2;Temp;Humidity;BMP_temperature;BMP_pressure;BME280_temperature;BME280_humidity;BME280_pressure;Samples;Min_cycle;Max_cycle;Signal;HPM_P1;HPM_P2
2022/03/27 00:02:05;;;;;;;32.38;15.30;;;13.00;43.90;;;;;;5043428;28;20476;-83
2022/03/27 00:04:30;;;;;;;36.13;15.63;;;13.00;43.90;;;;;;5035497;28;20022;-84
2022/03/27 00:06:57;;;;;;;36.05;15.63;;;13.00;43.80;;;;;;5050393;28;20025;-83
2022/03/27 00:09:23;;;;;;;29.25;14.73;;;13.00;43.80;;;;;;5034997;28;20021;-84
2022/03/27 00:11:48;;;;;;;29.45;16.02;;;12.90;44.30;;;;;;5035186;28;20156;-83
2022/03/27 00:14:14;;;;;;;31.33;14.68;;;12.90;44.10;;;;;;5033949;28;20029;-83
2022/03/27 00:16:40;;;;;;;33.33;15.30;;;13.00;44.10;;;;;;5043576;28;20029;-83
2022/03/27 00:19:06;;;;;;;31.80;15.23;;;13.00;44.30;;;;;;5055435;28;20044;-83
2022/03/27 00:21:32;;;;;;;33.67;14.45;;;12.90;44.50;;;;;;5038830;28;20028;-83
2022/03/27 00:23:58;;;;;;;36.22;16.27;;;12.90;44.60;;;;;;5035202;28;20014;-83
2022/03/27 00:26:24;;;;;;;31.10;15.18;;;12.90;44.60;;;;;;5034762;28;20028;-83
2022/03/27 00:28:51;;;;;;;33.75;14.88;;;12.90;44.50;;;;;;5034609;28;20032;-83
2022/03/27 00:31:17;;;;;;;29.95;14.68;;;12.90;44.70;;;;;;5040898;28;20529;-83
2022/03/27 00:33:44;;;;;;;37.10;15.75;;;12.90;44.80;;;;;;5054875;28;20021;-83
2022/03/27 00:36:13;;;;;;;33.13;14.77;;;13.00;44.50;;;;;;5051968;28;20044;-82
2022/03/27 00:38:40;;;;;;;34.95;16.73;;;13.00;44.40;;;;;;5035091;28;20056;-83
2022/03/27 00:41:06;;;;;;;38.08;16.33;;;12.80;45.20;;;;;;5034816;28;20240;-83
2022/03/27 00:43:35;;;;;;;31.83;14.52;;;12.90;44.90;;;;;;5045672;28;20052;-83
2022/03/27 00:46:01;;;;;;;33.20;14.80;;;12.80;45.30;;;;;;5054706;28;20021;-83
2022/03/27 00:48:27;;;;;;;35.38;16.65;;;12.80;45.40;;;;;;5043336;28;20044;-83
2022/03/27 00:50:54;;;;;;;37.55;15.57;;;12.70;45.70;;;;;;5035034;28;20034;-83
2022/03/27 00:53:21;;;;;;;36.90;15.75;;;12.80;45.60;;;;;;5035316;28;20036;-83
2022/03/27 00:55:48;;;;;;;42.63;18.65;;;12.80;45.40;;;;;;5034582;28;20029;-83
2022/03/27 00:58:16;;;;;;;39.05;16.80;;;12.80;45.60;;;;;;5033536;28;20454;-83
2022/03/27 01:00:48;;;;;;;39.00;16.98;;;12.70;46.00;;;;;;5045678;28;20025;-83
2022/03/27 01:03:25;;;;;;;36.50;16.73;;;12.70;46.00;;;;;;5054862;28;20396;-83
2022/03/27 01:05:53;;;;;;;35.17;16.35;;;12.70;46.10;;;;;;5054587;28;20025;-83
2022/03/27 01:09:35;;;;;;;38.47;16.92;;;12.70;46.00;;;;;;5053778;28;20024;-82
2022/03/27 01:11:26;;;;;;;43.38;16.42;;;12.70;46.10;;;;;;5045433;28;20080;-83
2022/03/27 01:13:58;;;;;;;39.33;16.88;;;12.70;46.10;;;;;;5046194;28;20025;-83
2022/03/27 01:16:41;;;;;;;40.33;16.63;;;12.70;46.70;;;;;;5053243;28;20431;-83
2022/03/27 01:19:12;;;;;;;36.00;17.10;;;12.70;46.30;;;;;;5034713;28;20026;-83
2022/03/27 01:21:43;;;;;;;39.50;16.50;;;12.70;46.40;;;;;;5037170;28;20021;-83
2022/03/27 01:24:10;;;;;;;40.03;16.00;;;12.80;46.20;;;;;;5039368;28;20104;-82
2022/03/27 01:26:38;;;;;;;38.00;15.88;;;12.70;46.70;;;;;;5055946;28;21910;-83
2022/03/27 01:29:06;;;;;;;37.35;15.93;;;12.70;46.70;;;;;;5038346;28;20025;-83
2022/03/27 01:31:33;;;;;;;33.90;16.55;;;12.60;46.80;;;;;;5038425;28;20057;-83
2022/03/27 01:33:59;;;;;;;41.45;16.75;;;12.70;46.50;;;;;;5038686;28;20450;-83
2022/03/27 01:36:26;;;;;;;32.83;14.65;;;12.70;46.40;;;;;;5038150;28;20083;-83
2022/03/27 01:38:54;;;;;;;37.95;15.93;;;12.80;46.40;;;;;;5045414;28;20040;-83
2022/03/27 01:41:20;;;;;;;35.08;15.57;;;12.80;46.60;;;;;;5036963;28;20132;-83
2022/03/27 01:43:46;;;;;;;39.58;16.13;;;12.80;46.30;;;;;;5038316;28;20053;-83
2022/03/27 01:46:12;;;;;;;37.08;16.88;;;12.80;46.30;;;;;;5038129;28;20057;-83
2022/03/27 01:48:38;;;;;;;41.33;16.95;;;12.70;46.90;;;;;;5054443;28;20523;-83
2022/03/27 01:51:05;;;;;;;33.38;15.80;;;12.60;46.80;;;;;;5058013;28;20056;-83
2022/03/27 01:53:31;;;;;;;36.65;16.05;;;12.70;46.60;;;;;;5045519;28;20104;-83
2022/03/27 01:55:57;;;;;;;38.35;16.60;;;12.80;46.20;;;;;;5037794;28;20527;-82
2022/03/27 01:58:23;;;;;;;35.00;15.73;;;12.70;46.70;;;;;;5037906;28;20037;-82
2022/03/27 02:00:48;;;;;;;38.25;16.58;;;12.70;46.70;;;;;;5043605;28;20420;-83
2022/03/27 02:03:14;;;;;;;38.42;18.52;;;12.70;46.80;;;;;;5054493;28;20035;-83
2022/03/27 02:05:40;;;;;;;40.42;17.40;;;12.80;46.60;;;;;;5052146;28;20030;-83
2022/03/27 02:08:06;;;;;;;35.45;16.90;;;12.70;46.60;;;;;;5037651;28;20036;-83
2022/03/27 02:10:31;;;;;;;38.97;17.33;;;12.70;47.10;;;;;;5037588;28;20025;-82
2022/03/27 02:12:57;;;;;;;38.20;17.50;;;12.50;47.40;;;;;;5037571;28;20480;-83
2022/03/27 02:15:24;;;;;;;38.65;17.38;;;12.40;47.90;;;;;;5052285;28;20056;-83
2022/03/27 02:17:50;;;;;;;39.67;18.15;;;12.40;47.90;;;;;;5037406;28;20079;-83
2022/03/27 02:20:16;;;;;;;43.00;17.55;;;12.30;48.20;;;;;;5037533;28;20018;-83
2022/03/27 02:22:42;;;;;;;30.83;15.18;;;12.30;48.30;;;;;;5037583;28;20483;-83
2022/03/27 02:25:09;;;;;;;37.33;17.00;;;12.30;48.40;;;;;;5037271;28;20026;-83
2022/03/27 02:27:35;;;;;;;32.17;15.27;;;12.30;48.10;;;;;;5035949;28;20043;-83
2022/03/27 02:30:01;;;;;;;40.42;16.38;;;12.30;48.20;;;;;;5037042;28;20492;-83
2022/03/27 02:32:26;;;;;;;39.05;16.55;;;12.30;48.50;;;;;;5036164;28;20052;-83
2022/03/27 02:34:52;;;;;;;37.28;17.58;;;12.30;48.30;;;;;;5037148;28;20030;-83
2022/03/27 02:37:18;;;;;;;36.65;15.77;;;12.30;48.40;;;;;;5052144;28;20057;-83
2022/03/27 02:39:44;;;;;;;34.38;16.17;;;12.30;48.10;;;;;;5036819;28;20021;-83
2022/03/27 02:42:10;;;;;;;36.35;15.68;;;12.30;48.30;;;;;;5035755;28;20177;-83
2022/03/27 02:44:36;;;;;;;34.55;15.85;;;12.30;48.50;;;;;;5037014;28;20026;-83
2022/03/27 02:47:02;;;;;;;42.05;17.63;;;12.20;48.50;;;;;;5040448;28;20067;-83
2022/03/27 02:49:27;;;;;;;36.45;17.20;;;12.20;48.40;;;;;;5051428;28;20543;-83
2022/03/27 02:51:53;;;;;;;37.45;16.50;;;12.30;48.30;;;;;;5036892;28;20029;-83
2022/03/27 02:54:19;;;;;;;40.13;16.35;;;12.30;48.50;;;;;;5051413;28;20017;-83
2022/03/27 02:56:46;;;;;;;41.40;17.55;;;12.30;48.50;;;;;;5036318;28;20156;-83
2022/03/27 02:59:11;;;;;;;42.75;19.17;;;12.20;48.80;;;;;;5040562;28;20396;-83
2022/03/27 03:01:37;;;;;;;49.35;18.80;;;12.20;48.50;;;;;;5055243;28;20035;-83
2022/03/27 03:04:04;;;;;;;39.38;16.70;;;12.20;48.60;;;;;;5055283;28;20067;-83
2022/03/27 03:06:31;;;;;;;42.40;17.17;;;12.20;48.80;;;;;;5054401;28;20059;-83
2022/03/27 03:08:57;;;;;;;45.78;18.58;;;12.10;49.10;;;;;;5056534;28;20036;-83
2022/03/27 03:11:23;;;;;;;39.83;17.83;;;12.10;48.40;;;;;;5053566;28;20037;-83
2022/03/27 03:13:51;;;;;;;39.45;16.42;;;12.10;48.80;;;;;;5051652;28;20407;-83
2022/03/27 03:16:18;;;;;;;35.72;15.80;;;12.00;49.00;;;;;;5035978;28;20112;-83
2022/03/27 03:18:44;;;;;;;38.80;16.83;;;11.90;49.30;;;;;;5035433;28;20114;-83
2022/03/27 03:21:10;;;;;;;35.38;15.23;;;11.80;49.70;;;;;;5036406;28;20105;-83
2022/03/27 03:23:36;;;;;;;42.05;16.42;;;11.70;50.60;;;;;;5036349;28;20032;-82
2022/03/27 03:26:04;;;;;;;38.17;16.58;;;11.70;50.00;;;;;;5036548;28;20520;-83
2022/03/27 03:28:29;;;;;;;31.08;16.92;;;11.60;50.20;;;;;;5036202;28;20033;-82
2022/03/27 03:30:55;;;;;;;35.25;17.23;;;11.60;50.90;;;;;;5036105;28;20035;-83
2022/03/27 03:33:21;;;;;;;36.05;17.95;;;11.60;50.60;;;;;;5036508;28;20028;-83
2022/03/27 03:35:47;;;;;;;33.88;16.75;;;11.60;50.50;;;;;;5035570;28;20033;-83
2022/03/27 03:38:13;;;;;;;36.92;16.48;;;11.50;51.40;;;;;;5035704;28;20061;-83
2022/03/27 03:40:41;;;;;;;39.08;17.30;;;11.30;51.20;;;;;;5035756;28;20032;-83
2022/03/27 03:43:11;;;;;;;42.05;16.88;;;11.30;51.40;;;;;;5033747;28;20052;-82
2022/03/27 03:45:37;;;;;;;40.60;17.90;;;11.20;51.60;;;;;;5034508;28;20071;-82
2022/03/27 03:48:04;;;;;;;35.40;15.77;;;11.20;51.90;;;;;;5047167;28;20093;-83
2022/03/27 03:50:33;;;;;;;36.47;16.13;;;11.10;51.80;;;;;;5055631;28;20025;-81
2022/03/27 03:52:59;;;;;;;40.78;17.73;;;11.10;51.90;;;;;;5049224;28;20035;-82
2022/03/27 03:55:26;;;;;;;34.35;15.82;;;11.10;51.70;;;;;;5034157;28;20377;-82
2022/03/27 03:57:51;;;;;;;38.83;17.88;;;11.10;51.50;;;;;;5035558;28;20079;-82
2022/03/27 04:00:17;;;;;;;38.83;17.00;;;11.10;51.50;;;;;;5048204;28;20037;-82
2022/03/27 04:02:43;;;;;;;40.72;18.10;;;11.10;52.00;;;;;;5050187;28;20030;-82
2022/03/27 04:05:09;;;;;;;40.22;17.55;;;11.10;51.90;;;;;;5035492;28;20503;-82
2022/03/27 04:07:34;;;;;;;45.70;19.08;;;11.00;52.40;;;;;;5035845;28;20044;-82
2022/03/27 04:10:00;;;;;;;39.58;16.25;;;11.00;52.50;;;;;;5035287;28;20022;-82
2022/03/27 04:12:26;;;;;;;39.33;17.52;;;11.00;52.30;;;;;;5035433;28;20053;-82
2022/03/27 04:14:51;;;;;;;33.40;16.85;;;11.00;52.30;;;;;;5050592;28;20492;-82
2022/03/27 04:17:17;;;;;;;36.38;16.52;;;11.00;53.10;;;;;;5049956;28;20044;-83
2022/03/27 04:19:43;;;;;;;32.90;15.75;;;10.90;53.00;;;;;;5035219;28;20384;-82
2022/03/27 04:22:08;;;;;;;36.80;16.42;;;10.80;53.00;;;;;;5034308;28;20396;-83
2022/03/27 04:24:34;;;;;;;38.20;17.65;;;10.80;53.30;;;;;;5033820;28;20083;-82
2022/03/27 04:26:59;;;;;;;39.13;16.83;;;10.80;52.90;;;;;;5049601;28;20029;-82
2022/03/27 04:29:26;;;;;;;36.67;17.20;;;10.80;52.60;;;;;;5033664;28;20028;-82
2022/03/27 04:31:52;;;;;;;32.30;15.68;;;10.80;52.40;;;;;;5035167;28;20018;-82
2022/03/27 04:34:18;;;;;;;39.78;16.63;;;10.80;53.20;;;;;;5033591;28;20021;-81
2022/03/27 04:36:44;;;;;;;37.63;17.40;;;10.80;52.80;;;;;;5034930;28;20119;-81
2022/03/27 04:39:09;;;;;;;38.55;16.15;;;10.80;53.00;;;;;;5035289;28;20040;-81
2022/03/27 04:41:36;;;;;;;35.45;17.23;;;10.70;53.10;;;;;;5034963;28;20056;-81
2022/03/27 04:44:03;;;;;;;34.08;16.58;;;10.70;53.80;;;;;;5033877;28;20040;-81
2022/03/27 04:46:29;;;;;;;35.30;16.38;;;10.70;54.20;;;;;;5035018;28;20029;-82
2022/03/27 04:48:55;;;;;;;37.22;17.05;;;10.70;53.70;;;;;;5053418;28;20044;-82
2022/03/27 04:51:21;;;;;;;33.85;16.35;;;10.60;53.50;;;;;;5054883;28;20073;-82
2022/03/27 04:53:47;;;;;;;40.47;17.20;;;10.50;54.40;;;;;;5042841;28;20237;-82
2022/03/27 04:56:13;;;;;;;41.92;18.05;;;10.50;54.30;;;;;;5039229;28;20056;-81
2022/03/27 04:58:39;;;;;;;41.13;17.05;;;10.50;54.20;;;;;;5038988;28;20048;-84
2022/03/27 05:01:04;;;;;;;38.90;18.67;;;10.40;53.90;;;;;;5052612;28;20018;-84
2022/03/27 05:03:30;;;;;;;38.78;16.90;;;10.40;54.30;;;;;;5058135;28;20080;-82
2022/03/27 05:05:55;;;;;;;41.50;17.75;;;10.40;53.40;;;;;;5042505;28;20022;-83
2022/03/27 05:08:21;;;;;;;36.35;16.15;;;10.50;53.40;;;;;;5038759;28;20033;-82
2022/03/27 05:10:47;;;;;;;37.30;17.80;;;10.40;53.50;;;;;;5039032;28;20040;-81
2022/03/27 05:13:14;;;;;;;37.67;17.55;;;10.30;53.40;;;;;;5038547;28;20037;-81
2022/03/27 05:15:40;;;;;;;40.25;16.85;;;10.30;54.40;;;;;;5038965;28;20017;-81
2022/03/27 05:18:06;;;;;;;38.05;16.88;;;10.30;54.90;;;;;;5038493;28;20068;-81
2022/03/27 05:20:32;;;;;;;45.80;18.75;;;10.30;54.50;;;;;;5038591;28;20480;-81
2022/03/27 05:22:59;;;;;;;43.40;17.15;;;10.30;54.30;;;;;;5038137;28;20033;-81
2022/03/27 05:25:25;;;;;;;40.45;17.23;;;10.20;55.20;;;;;;5037000;28;20029;-81
2022/03/27 05:27:54;;;;;;;35.00;17.42;;;10.20;54.70;;;;;;5037193;28;20087;-81
2022/03/27 05:30:22;;;;;;;40.50;17.58;;;10.30;54.10;;;;;;5036879;28;20144;-82
2022/03/27 05:32:49;;;;;;;39.00;19.45;;;10.30;54.10;;;;;;5038278;28;20487;-81
2022/03/27 05:35:15;;;;;;;44.78;18.10;;;10.30;54.60;;;;;;5038258;28;20021;-81
2022/03/27 05:37:43;;;;;;;37.63;19.25;;;10.20;54.70;;;;;;5037964;28;20052;-82
2022/03/27 05:40:12;;;;;;;40.53;17.80;;;10.00;55.20;;;;;;5036668;28;20064;-81
2022/03/27 05:42:38;;;;;;;41.78;18.63;;;10.00;55.30;;;;;;5038333;28;20053;-84
2022/03/27 05:45:06;;;;;;;42.90;19.10;;;10.00;55.40;;;;;;5038091;28;20024;-81
2022/03/27 05:47:32;;;;;;;37.00;17.25;;;10.00;55.30;;;;;;5045136;28;20107;-84
2022/03/27 05:49:58;;;;;;;38.60;17.60;;;10.00;55.80;;;;;;5048351;28;20430;-81
2022/03/27 05:52:24;;;;;;;36.28;18.27;;;10.00;55.50;;;;;;5036821;28;20034;-81
2022/03/27 05:54:51;;;;;;;41.45;16.80;;;9.90;56.00;;;;;;5036484;28;20507;-84
2022/03/27 05:57:18;;;;;;;43.22;17.60;;;10.00;55.90;;;;;;5037689;28;20025;-81
2022/03/27 05:59:45;;;;;;;42.53;18.92;;;10.00;55.50;;;;;;5045544;28;20064;-81
2022/03/27 06:02:12;;;;;;;45.63;18.83;;;10.10;55.30;;;;;;5054941;28;20029;-81
2022/03/27 06:04:38;;;;;;;36.88;16.50;;;10.20;55.20;;;;;;5048574;28;20025;-81
2022/03/27 06:07:05;;;;;;;39.83;18.05;;;10.20;54.90;;;;;;5043126;28;20032;-82
2022/03/27 06:09:30;;;;;;;42.13;16.83;;;10.30;54.80;;;;;;5044890;28;20029;-82
2022/03/27 06:11:56;;;;;;;39.05;17.85;;;10.20;54.80;;;;;;5047175;28;20029;-82
2022/03/27 06:14:22;;;;;;;40.08;18.10;;;10.20;54.90;;;;;;5047456;28;20025;-83
2022/03/27 06:16:48;;;;;;;37.38;16.73;;;10.20;55.20;;;;;;5045801;28;20510;-82
2022/03/27 06:19:13;;;;;;;40.95;17.17;;;10.20;55.50;;;;;;5045838;28;20021;-82
2022/03/27 06:21:39;;;;;;;37.55;17.02;;;10.10;55.80;;;;;;5045748;28;20076;-83
2022/03/27 06:24:05;;;;;;;37.72;16.58;;;10.30;55.50;;;;;;5045545;28;20100;-84
2022/03/27 06:26:31;;;;;;;36.42;15.88;;;10.30;54.70;;;;;;5040916;28;20171;-82
2022/03/27 06:28:57;;;;;;;33.78;16.75;;;10.40;54.60;;;;;;5044839;28;20059;-83
2022/03/27 06:31:22;;;;;;;41.95;17.65;;;10.50;54.30;;;;;;5047106;28;20048;-81
2022/03/27 06:38:55;;;;;;;35.20;16.05;;;10.50;54.30;;;;;;5078348;28;20412;-80
2022/03/27 06:41:21;;;;;;;42.22;17.60;;;10.50;54.20;;;;;;5063317;28;20641;-79
2022/03/27 06:43:46;;;;;;;36.85;16.23;;;10.50;54.20;;;;;;5072028;28;20032;-79
2022/03/27 06:46:16;;;;;;;36.78;16.73;;;10.70;54.20;;;;;;5064199;28;20025;-87
2022/03/27 06:48:43;;;;;;;36.20;16.77;;;10.80;53.90;;;;;;5068251;28;20032;-86
2022/03/27 06:51:09;;;;;;;37.00;16.67;;;10.90;53.60;;;;;;5062860;28;20182;-81
2022/03/27 06:53:35;;;;;;;36.40;16.48;;;10.90;53.50;;;;;;5062369;28;20053;-84
2022/03/27 06:59:06;;;;;;;39.97;17.05;;;11.10;52.90;;;;;;5111470;27;1306828;-84
2022/03/27 07:04:23;;;;;;;35.65;15.55;;;11.20;53.50;;;;;;5078835;27;20044;-78
2022/03/27 07:06:49;;;;;;;37.92;16.85;;;11.60;51.90;;;;;;5060077;28;20116;-78
2022/03/27 07:09:15;;;;;;;32.88;16.88;;;11.90;51.10;;;;;;5059363;28;20098;-79
2022/03/27 07:11:40;;;;;;;34.33;16.50;;;12.50;49.90;;;;;;5048821;28;20132;-81
2022/03/27 07:14:07;;;;;;;37.17;17.85;;;12.90;48.60;;;;;;5044098;28;20034;-79
2022/03/27 07:16:32;;;;;;;34.20;16.35;;;13.00;47.70;;;;;;5052199;28;20510;-78
2022/03/27 07:18:58;;;;;;;40.38;19.08;;;13.30;47.00;;;;;;5050169;28;20403;-78
2022/03/27 07:21:24;;;;;;;39.03;17.92;;;13.70;46.10;;;;;;5057401;28;20048;-78
2022/03/27 07:23:49;;;;;;;35.97;18.27;;;14.40;44.90;;;;;;5062381;28;20029;-78
2022/03/27 07:26:17;;;;;;;31.30;16.10;;;15.00;43.60;;;;;;5056905;28;21323;-79
2022/03/27 07:28:43;;;;;;;33.92;17.17;;;15.40;42.10;;;;;;5056216;28;20057;-79
2022/03/27 07:31:11;;;;;;;37.88;17.05;;;15.70;41.00;;;;;;5056120;28;20032;-79
2022/03/27 07:33:37;;;;;;;32.33;17.27;;;16.70;40.00;;;;;;5055878;28;20037;-79
2022/03/27 07:36:04;;;;;;;36.03;17.65;;;18.10;36.60;;;;;;5044426;28;20045;-79
2022/03/27 07:38:29;;;;;;;31.80;17.77;;;19.40;34.00;;;;;;5040722;28;20029;-80
2022/03/27 07:40:55;;;;;;;37.78;19.58;;;20.40;33.70;;;;;;5048863;28;20024;-80
2022/03/27 07:43:21;;;;;;;35.08;19.33;;;21.10;30.40;;;;;;5036940;28;20033;-79
2022/03/27 07:45:47;;;;;;;34.15;18.88;;;22.00;29.70;;;;;;5043979;28;20025;-79
2022/03/27 07:48:12;;;;;;;36.53;19.75;;;22.70;29.50;;;;;;5043696;28;20032;-79
2022/03/27 07:50:38;;;;;;;33.38;20.23;;;23.20;28.90;;;;;;5047646;28;20104;-80
2022/03/27 07:53:05;;;;;;;34.70;20.90;;;23.20;28.10;;;;;;5060787;28;20081;-79
2022/03/27 07:55:31;;;;;;;34.10;20.55;;;23.10;28.20;;;;;;5057573;28;20024;-79
2022/03/27 07:57:58;;;;;;;34.22;20.30;;;23.60;27.30;;;;;;5055611;28;20113;-79
2022/03/27 08:00:24;;;;;;;33.47;20.42;;;23.70;27.00;;;;;;5047903;28;20021;-79
2022/03/27 08:02:51;;;;;;;33.95;21.30;;;23.90;26.10;;;;;;5049515;28;20061;-79
2022/03/27 08:05:17;;;;;;;34.58;20.42;;;23.60;26.20;;;;;;5048762;28;20817;-79
2022/03/27 08:07:42;;;;;;;34.40;20.88;;;24.60;26.20;;;;;;5053593;28;20033;-79
2022/03/27 08:10:08;;;;;;;30.80;20.45;;;24.50;25.10;;;;;;5050859;28;20057;-79
2022/03/27 08:12:35;;;;;;;28.88;20.13;;;24.50;25.90;;;;;;5048626;28;20030;-80
2022/03/27 08:15:02;;;;;;;33.50;21.48;;;25.10;25.50;;;;;;5045797;28;20077;-80
2022/03/27 08:17:28;;;;;;;35.72;21.85;;;25.80;25.10;;;;;;5025387;28;20037;-80
2022/03/27 08:19:53;;;;;;;33.30;21.58;;;26.00;24.50;;;;;;5034400;28;20025;-80
2022/03/27 08:22:20;;;;;;;32.60;21.00;;;25.70;24.70;;;;;;5038511;28;20026;-80
2022/03/27 08:24:46;;;;;;;34.35;20.88;;;26.20;25.40;;;;;;5041361;28;20013;-79
2022/03/27 08:27:13;;;;;;;31.75;20.52;;;24.90;24.60;;;;;;5041820;28;20029;-79
2022/03/27 08:29:41;;;;;;;32.63;22.10;;;26.30;25.30;;;;;;5041639;28;20013;-80
2022/03/27 08:32:10;;;;;;;31.73;22.55;;;26.60;24.10;;;;;;5039801;28;20040;-80
2022/03/27 08:34:37;;;;;;;30.42;21.63;;;26.60;24.60;;;;;;5038362;28;20091;-79
2022/03/27 08:37:05;;;;;;;31.85;23.30;;;27.70;23.70;;;;;;5042937;28;20026;-80
2022/03/27 08:39:32;;;;;;;29.80;21.53;;;28.10;22.70;;;;;;5033368;28;20053;-80
2022/03/27 08:41:59;;;;;;;29.13;20.27;;;28.70;23.70;;;;;;5033406;28;20514;-78
2022/03/27 08:44:26;;;;;;;27.58;20.17;;;29.10;23.10;;;;;;5032425;28;20026;-79
2022/03/27 08:46:57;;;;;;;30.27;21.25;;;29.30;22.80;;;;;;5042279;28;20018;-78
2022/03/27 08:49:40;;;;;;;25.83;20.17;;;29.00;22.90;;;;;;5037575;28;20025;-81
2022/03/27 08:52:17;;;;;;;27.27;21.92;;;28.90;22.60;;;;;;5032543;28;20026;-79
2022/03/27 08:55:15;;;;;;;31.70;22.17;;;28.60;22.60;;;;;;5038981;28;20026;-80
2022/03/27 08:57:59;;;;;;;27.15;19.65;;;28.30;23.30;;;;;;5030171;28;20045;-79
2022/03/27 09:00:31;;;;;;;28.98;21.95;;;28.60;23.60;;;;;;5031914;28;20030;-79
2022/03/27 09:02:58;;;;;;;28.17;20.77;;;28.20;22.60;;;;;;5028533;28;20038;-80
2022/03/27 09:05:25;;;;;;;30.38;20.50;;;28.10;22.70;;;;;;5033860;28;20026;-80
2022/03/27 09:07:52;;;;;;;30.48;20.60;;;28.30;23.10;;;;;;5041153;28;20136;-79
2022/03/27 09:10:18;;;;;;;33.17;21.60;;;27.10;22.40;;;;;;5043306;28;20033;-79
2022/03/27 09:12:45;;;;;;;28.00;20.20;;;26.70;22.80;;;;;;5039976;28;20025;-78
2022/03/27 09:15:12;;;;;;;34.63;20.98;;;26.40;23.40;;;;;;5044373;28;20060;-78
2022/03/27 09:18:08;;;;;;;30.08;20.35;;;26.50;23.40;;;;;;5032270;28;20025;-78
2022/03/27 09:20:39;;;;;;;33.78;21.98;;;26.80;22.40;;;;;;5036523;28;20025;-78
2022/03/27 09:23:16;;;;;;;30.45;21.05;;;26.40;23.60;;;;;;5061753;28;20024;-79
2022/03/27 09:26:04;;;;;;;30.95;20.60;;;26.40;23.60;;;;;;5032902;28;20061;-79
2022/03/27 09:28:41;;;;;;;29.90;21.42;;;26.20;23.70;;;;;;5039157;28;20091;-78
2022/03/27 09:31:22;;;;;;;32.58;20.13;;;26.60;23.80;;;;;;5041413;28;20506;-78
2022/03/27 09:33:57;;;;;;;31.05;19.98;;;26.90;23.30;;;;;;5045301;28;20076;-78
2022/03/27 09:36:26;;;;;;;30.98;20.25;;;26.90;23.60;;;;;;5049903;28;20033;-78
2022/03/27 09:39:01;;;;;;;30.63;20.73;;;26.80;23.10;;;;;;5041705;28;20488;-78
2022/03/27 09:42:03;;;;;;;32.00;20.70;;;26.70;23.30;;;;;;5043313;28;20040;-78
2022/03/27 09:44:29;;;;;;;28.98;20.15;;;26.60;23.10;;;;;;4996793;28;20117;-78
2022/03/27 09:47:05;;;;;;;30.20;20.63;;;26.50;23.40;;;;;;5024710;28;20076;-78
2022/03/27 09:49:31;;;;;;;29.58;19.98;;;26.80;23.40;;;;;;5034405;28;20099;-78
2022/03/27 09:52:12;;;;;;;32.60;21.05;;;26.80;23.50;;;;;;5037701;28;20127;-78
2022/03/27 09:54:55;;;;;;;31.60;20.60;;;27.20;24.20;;;;;;5054099;28;20036;-78
2022/03/27 09:57:29;;;;;;;31.77;20.38;;;28.20;23.80;;;;;;5036813;28;20078;-79
2022/03/27 09:59:57;;;;;;;31.50;21.42;;;27.60;23.20;;;;;;5044652;28;20028;-78
2022/03/27 10:02:30;;;;;;;29.02;20.65;;;27.20;23.30;;;;;;5042513;28;20475;-78
2022/03/27 10:04:56;;;;;;;29.40;21.65;;;27.00;23.10;;;;;;5041345;28;20036;-78
2022/03/27 10:07:25;;;;;;;34.00;22.95;;;26.60;23.80;;;;;;5047136;28;20025;-77
2022/03/27 10:09:55;;;;;;;27.73;19.98;;;26.70;23.70;;;;;;5043075;28;20021;-79
2022/03/27 10:12:31;;;;;;;32.95;20.80;;;26.90;24.20;;;;;;5041655;28;20029;-83
2022/03/27 10:15:03;;;;;;;33.17;21.95;;;26.60;24.10;;;;;;5044973;28;20033;-79
2022/03/27 10:17:31;;;;;;;31.25;20.48;;;26.40;24.60;;;;;;5043015;28;20025;-78
2022/03/27 10:20:02;;;;;;;30.83;21.42;;;26.00;25.70;;;;;;5044130;28;20684;-81
2022/03/27 10:22:29;;;;;;;33.85;20.88;;;25.90;25.10;;;;;;5041427;28;20043;-78
2022/03/27 10:25:00;;;;;;;33.60;20.90;;;25.10;26.10;;;;;;5044911;28;20033;-79
2022/03/27 10:27:28;;;;;;;33.03;19.45;;;24.40;28.00;;;;;;5037491;28;20124;-79
2022/03/27 10:29:55;;;;;;;39.35;20.65;;;23.60;28.10;;;;;;5040213;28;20032;-77
2022/03/27 10:32:20;;;;;;;33.20;20.15;;;22.90;29.10;;;;;;5038661;28;20025;-78
2022/03/27 10:35:26;;;;;;;36.22;19.42;;;22.20;30.40;;;;;;5034139;28;20101;-81
2022/03/27 10:37:59;;;;;;;37.70;18.55;;;22.30;31.20;;;;;;5042648;28;20021;-77
2022/03/27 10:41:05;;;;;;;36.20;19.98;;;22.20;31.30;;;;;;5043820;28;20035;-79
2022/03/27 10:43:50;;;;;;;37.55;18.23;;;21.90;31.20;;;;;;5047556;28;20096;-76
2022/03/27 10:46:15;;;;;;;32.88;17.55;;;21.80;32.10;;;;;;5031876;28;20033;-80
2022/03/27 10:48:42;;;;;;;34.58;18.50;;;21.70;32.70;;;;;;5035780;28;21087;-77
2022/03/27 10:51:34;;;;;;;37.83;18.90;;;22.00;32.00;;;;;;5022116;28;20034;-78
2022/03/27 10:54:18;;;;;;;35.05;17.83;;;21.90;32.70;;;;;;5018182;28;20076;-76
2022/03/27 10:56:52;;;;;;;33.22;18.08;;;21.80;33.30;;;;;;5029339;28;20029;-75
2022/03/27 10:59:24;;;;;;;39.08;18.77;;;21.90;33.20;;;;;;5034714;28;20045;-77
2022/03/27 11:01:52;;;;;;;39.70;19.85;;;22.00;32.90;;;;;;5035192;28;20026;-75
2022/03/27 11:04:35;;;;;;;35.40;17.30;;;21.80;32.70;;;;;;5034600;28;20059;-75
2022/03/27 11:07:16;;;;;;;40.40;17.48;;;21.70;32.90;;;;;;5034799;28;20507;-75
2022/03/27 11:09:46;;;;;;;40.53;18.90;;;21.60;34.00;;;;;;5034825;28;20443;-74
2022/03/27 11:12:24;;;;;;;36.90;18.48;;;21.70;34.10;;;;;;5034440;28;20030;-81
2022/03/27 11:14:52;;;;;;;33.80;18.40;;;21.30;34.00;;;;;;5034956;28;20377;-75
2022/03/27 11:17:41;;;;;;;38.53;17.95;;;21.50;33.30;;;;;;5034630;28;20895;-76
2022/03/27 11:20:10;;;;;;;31.38;17.35;;;21.60;33.40;;;;;;5034922;28;20104;-77
2022/03/27 11:22:45;;;;;;;36.08;18.33;;;21.50;34.60;;;;;;5036765;28;20030;-76
2022/03/27 11:25:29;;;;;;;37.15;19.52;;;21.40;32.80;;;;;;5033556;28;20124;-80
2022/03/27 11:28:13;;;;;;;36.88;18.27;;;21.20;33.60;;;;;;5033918;28;20083;-84
2022/03/27 11:30:49;;;;;;;34.40;18.05;;;21.30;34.30;;;;;;5050051;28;20052;-79
2022/03/27 11:33:29;;;;;;;37.25;17.98;;;21.10;33.40;;;;;;5026947;28;20025;-79
2022/03/27 11:36:11;;;;;;;32.15;17.02;;;21.40;33.10;;;;;;5041863;28;20018;-79
2022/03/27 11:38:51;;;;;;;31.80;15.90;;;21.60;33.60;;;;;;5041744;28;20032;-79
2022/03/27 11:41:31;;;;;;;32.45;17.95;;;21.80;33.60;;;;;;5037022;28;20040;-79
2022/03/27 11:44:18;;;;;;;35.83;17.27;;;21.60;32.70;;;;;;5023374;28;20034;-79
2022/03/27 11:46:48;;;;;;;35.35;17.70;;;21.50;32.30;;;;;;5028387;28;20850;-80
2022/03/27 11:49:14;;;;;;;34.67;16.80;;;21.40;32.80;;;;;;5031325;28;20472;-82
2022/03/27 11:51:40;;;;;;;35.10;17.48;;;21.60;32.50;;;;;;5037684;28;20507;-78
2022/03/27 11:54:20;;;;;;;35.63;16.85;;;21.80;32.70;;;;;;5031488;28;20106;-78
2022/03/27 11:56:53;;;;;;;37.10;16.77;;;21.90;32.50;;;;;;5036023;28;20025;-78
2022/03/27 11:59:19;;;;;;;35.80;17.08;;;21.70;32.30;;;;;;5034990;28;20508;-78
2022/03/27 12:01:51;;;;;;;33.38;16.40;;;21.90;33.10;;;;;;5035381;28;20094;-78
2022/03/27 12:04:18;;;;;;;34.42;17.17;;;21.90;32.50;;;;;;5033212;28;20025;-78
2022/03/27 12:06:44;;;;;;;28.42;15.70;;;22.00;33.00;;;;;;5035409;28;20036;-78
2022/03/27 12:09:22;;;;;;;30.25;16.30;;;22.00;32.20;;;;;;5035402;28;20029;-78
2022/03/27 12:12:20;;;;;;;37.13;17.80;;;22.00;32.20;;;;;;5031880;28;20033;-76
2022/03/27 12:14:50;;;;;;;35.05;17.40;;;21.80;32.10;;;;;;5039352;28;20026;-78
2022/03/27 12:17:16;;;;;;;;;;;21.70;32.70;;;;;;5041345;28;20029;-78
2022/03/27 12:19:56;;;;;;;32.97;15.38;;;21.80;33.40;;;;;;5045713;28;19912;-78
2022/03/27 12:22:35;;;;;;;31.55;16.27;;;22.10;33.40;;;;;;5029635;28;20040;-78
2022/03/27 12:25:03;;;;;;;31.73;15.97;;;22.10;33.40;;;;;;5035812;28;20025;-79
2022/03/27 12:30:13;;;;;;;36.00;18.42;;;22.10;36.00;;;;;;5024162;28;20040;-79
2022/03/27 12:32:38;;;;;;;37.85;18.73;;;22.30;32.70;;;;;;5043896;28;20029;-79
2022/03/27 12:35:06;;;;;;;31.00;17.02;;;22.30;32.00;;;;;;5023352;28;20029;-79
2022/03/27 12:37:35;;;;;;;31.40;17.15;;;22.30;32.50;;;;;;5038403;28;20379;-80
2022/03/27 12:40:06;;;;;;;33.53;15.93;;;22.30;32.20;;;;;;5037062;28;20041;-80
2022/03/27 12:42:48;;;;;;;31.45;16.40;;;22.30;32.10;;;;;;5060464;28;20048;-79
2022/03/27 12:45:14;;;;;;;30.45;15.50;;;22.40;32.80;;;;;;5043037;28;20574;-79
2022/03/27 12:47:52;;;;;;;31.27;16.40;;;22.50;33.30;;;;;;5043159;28;20087;-78
2022/03/27 12:50:46;;;;;;;31.88;16.23;;;22.60;32.90;;;;;;5042905;28;20049;-78
2022/03/27 12:53:20;;;;;;;33.63;16.13;;;22.60;33.70;;;;;;5038368;28;20044;-78